createdAt,value
2023-03-29T00:01:06.633Z,3.70
2023-03-29T00:03:35.287Z,4.25
2023-03-29T00:06:04.337Z,3.03
2023-03-29T00:08:33.980Z,3.53
2023-03-29T00:11:01.632Z,4.45
2023-03-29T00:13:29.375Z,2.85
2023-03-29T00:15:56.709Z,3.38
2023-03-29T00:18:23.844Z,4.10
2023-03-29T00:20:56.137Z,3.38
2023-03-29T00:23:23.299Z,3.40
2023-03-29T00:25:50.990Z,4.13
2023-03-29T00:28:18.126Z,5.13
2023-03-29T00:30:45.560Z,2.55
2023-03-29T00:33:13.628Z,6.30
2023-03-29T00:35:42.691Z,5.40
2023-03-29T00:38:11.300Z,2.88
2023-03-29T00:40:42.020Z,5.50
2023-03-29T00:43:11.159Z,2.63
2023-03-29T00:45:39.056Z,7.55
2023-03-29T00:48:08.864Z,4.50
2023-03-29T00:50:40.268Z,5.50
2023-03-29T00:53:13.239Z,4.45
2023-03-29T00:55:45.620Z,7.25
2023-03-29T00:58:18.091Z,4.65
2023-03-29T01:00:52.196Z,3.63
2023-03-29T01:03:27.430Z,7.22
2023-03-29T01:06:00.375Z,5.43
2023-03-29T01:08:35.856Z,4.90
2023-03-29T01:11:07.288Z,5.80
2023-03-29T01:13:39.447Z,7.45
2023-03-29T01:16:09.712Z,9.50
2023-03-29T01:18:37.217Z,2.53
2023-03-29T01:21:25.228Z,3.65
2023-03-29T01:24:26.056Z,12.57
2023-03-29T01:27:01.076Z,4.57
2023-03-29T01:29:47.224Z,4.30
2023-03-29T01:32:19.739Z,4.95
2023-03-29T01:34:52.205Z,2.67
2023-03-29T01:37:24.861Z,3.47
2023-03-29T01:39:52.733Z,3.72
2023-03-29T01:42:32.370Z,8.48
2023-03-29T01:45:10.291Z,4.78
2023-03-29T01:47:47.002Z,2.80
2023-03-29T01:50:18.874Z,3.42
2023-03-29T01:52:52.056Z,4.80
2023-03-29T01:55:24.400Z,2.13
2023-03-29T01:57:55.660Z,4.22
2023-03-29T02:00:27.706Z,3.72
2023-03-29T02:03:00.251Z,5.85
2023-03-29T02:05:30.621Z,4.57
2023-03-29T02:08:00.426Z,3.90
2023-03-29T02:10:29.916Z,3.67
2023-03-29T02:12:58.735Z,3.55
2023-03-29T02:15:28.154Z,2.45
2023-03-29T02:17:56.937Z,10.80
2023-03-29T02:20:28.628Z,4.90
2023-03-29T02:23:02.321Z,4.10
2023-03-29T02:25:29.646Z,11.38
2023-03-29T02:27:57.385Z,7.75
2023-03-29T02:30:28.126Z,4.88
2023-03-29T02:33:02.016Z,8.73
2023-03-29T02:35:35.080Z,17.38
2023-03-29T02:38:07.835Z,8.70
2023-03-29T02:40:37.656Z,9.80
2023-03-29T02:43:07.755Z,9.80
2023-03-29T02:45:37.604Z,10.82
2023-03-29T02:48:10.936Z,10.38
2023-03-29T02:50:39.353Z,10.98
2023-03-29T02:53:13.198Z,8.88
2023-03-29T02:55:40.473Z,14.45
2023-03-29T02:58:10.764Z,11.18
2023-03-29T03:00:42.112Z,11.77
2023-03-29T03:03:12.076Z,12.13
2023-03-29T03:05:39.546Z,13.70
2023-03-29T03:08:07.690Z,16.10
2023-03-29T03:10:35.483Z,13.90
2023-03-29T03:13:03.689Z,11.82
2023-03-29T03:15:31.252Z,12.13
2023-03-29T03:17:58.577Z,8.82
2023-03-29T03:20:27.275Z,10.07
2023-03-29T03:22:54.816Z,8.30
2023-03-29T03:25:21.849Z,10.13
2023-03-29T03:27:50.281Z,9.75
2023-03-29T03:30:17.966Z,8.48
2023-03-29T03:32:45.264Z,5.45
2023-03-29T03:35:12.992Z,6.80
2023-03-29T03:38:07.384Z,7.93
2023-03-29T03:40:34.507Z,11.60
2023-03-29T03:43:02.017Z,11.38
2023-03-29T03:45:29.120Z,6.55
2023-03-29T03:47:56.679Z,6.78
2023-03-29T03:50:24.488Z,8.23
2023-03-29T03:52:52.080Z,6.28
2023-03-29T03:55:22.041Z,7.15
2023-03-29T03:57:49.262Z,13.15
2023-03-29T04:00:19.628Z,9.77
2023-03-29T04:02:49.017Z,13.02
2023-03-29T04:05:17.215Z,5.00
2023-03-29T04:07:44.652Z,6.13
2023-03-29T04:10:11.863Z,5.20
2023-03-29T04:12:40.741Z,10.05
2023-03-29T04:15:08.988Z,6.38
2023-03-29T04:17:36.328Z,7.90
2023-03-29T04:20:10.275Z,5.30
2023-03-29T04:22:37.653Z,8.27
2023-03-29T04:25:05.652Z,6.45
2023-03-29T04:27:33.150Z,11.98
2023-03-29T04:30:01.562Z,9.60
2023-03-29T04:32:28.874Z,12.05
2023-03-29T04:34:56.487Z,8.13
2023-03-29T04:37:24.127Z,9.60
2023-03-29T04:39:52.531Z,7.70
2023-03-29T04:42:20.369Z,11.00
2023-03-29T04:44:47.518Z,7.90
2023-03-29T04:47:16.314Z,9.95
2023-03-29T04:49:43.326Z,10.60
2023-03-29T04:52:10.810Z,10.43
2023-03-29T04:54:37.947Z,10.75
2023-03-29T04:57:06.017Z,10.93
2023-03-29T04:59:33.356Z,9.88
2023-03-29T05:02:03.164Z,14.00
2023-03-29T05:04:32.553Z,8.75
2023-03-29T05:07:01.679Z,6.22
2023-03-29T05:09:29.551Z,11.88
2023-03-29T05:11:57.197Z,9.83
2023-03-29T05:14:24.492Z,9.18
2023-03-29T05:16:52.133Z,8.25
2023-03-29T05:19:21.854Z,10.45
2023-03-29T05:21:51.220Z,9.10
2023-03-29T05:24:18.738Z,8.38
2023-03-29T05:26:47.721Z,12.80
2023-03-29T05:29:14.829Z,10.60
2023-03-29T05:31:42.350Z,11.23
2023-03-29T05:34:09.624Z,11.32
2023-03-29T05:36:38.216Z,8.38
2023-03-29T05:39:07.163Z,9.48
2023-03-29T05:41:34.585Z,9.60
2023-03-29T05:44:02.554Z,7.93
2023-03-29T05:46:30.062Z,7.50
2023-03-29T05:48:57.369Z,10.45
2023-03-29T05:51:24.810Z,12.70
2023-03-29T05:53:52.128Z,9.93
2023-03-29T05:56:20.886Z,9.93
2023-03-29T05:58:49.247Z,9.37
2023-03-29T06:01:19.651Z,9.70
2023-03-29T06:03:47.457Z,11.05
2023-03-29T06:06:16.638Z,7.15
2023-03-29T06:08:45.024Z,10.20
2023-03-29T06:11:13.475Z,7.32
2023-03-29T06:13:42.262Z,7.40
2023-03-29T06:18:40.307Z,9.90
2023-03-29T06:21:09.456Z,9.27
2023-03-29T06:23:36.768Z,13.35
2023-03-29T06:26:05.668Z,9.40
2023-03-29T06:28:33.056Z,12.73
2023-03-29T06:31:03.271Z,9.15
2023-03-29T06:33:32.446Z,9.68
2023-03-29T06:35:59.956Z,14.63
2023-03-29T06:38:28.457Z,16.65
2023-03-29T06:41:01.534Z,12.43
2023-03-29T06:43:28.859Z,13.40
2023-03-29T06:45:56.386Z,13.15
2023-03-29T06:48:25.019Z,9.18
2023-03-29T06:50:54.525Z,7.10
2023-03-29T06:53:22.165Z,13.50
2023-03-29T06:55:51.840Z,10.93
2023-03-29T06:58:18.833Z,11.32
2023-03-29T07:00:47.512Z,8.18
2023-03-29T07:03:20.405Z,5.65
2023-03-29T07:05:51.812Z,6.70
2023-03-29T07:08:21.294Z,8.13
2023-03-29T07:10:53.284Z,4.63
2023-03-29T07:13:20.432Z,4.55
2023-03-29T07:15:47.829Z,9.40
2023-03-29T07:18:14.916Z,6.50
2023-03-29T07:20:42.613Z,5.72
2023-03-29T07:23:11.897Z,6.63
2023-03-29T07:25:39.410Z,5.65
2023-03-29T07:28:06.879Z,9.70
2023-03-29T07:30:34.604Z,5.10
2023-03-29T07:33:01.609Z,5.68
2023-03-29T07:35:29.205Z,7.30
2023-03-29T07:37:56.304Z,5.25
2023-03-29T07:40:26.444Z,5.93
2023-03-29T07:42:55.259Z,4.80
2023-03-29T07:45:26.656Z,4.15
2023-03-29T07:47:57.302Z,5.00
2023-03-29T07:50:25.785Z,8.80
2023-03-29T07:52:53.278Z,4.25
2023-03-29T07:55:22.340Z,5.03
2023-03-29T07:57:51.737Z,5.45
2023-03-29T08:00:20.362Z,4.63
2023-03-29T08:02:49.838Z,4.78
2023-03-29T08:05:26.160Z,5.55
2023-03-29T08:07:56.673Z,3.28
2023-03-29T08:10:24.423Z,4.40
2023-03-29T08:12:53.666Z,5.28
2023-03-29T08:15:20.979Z,5.65
2023-03-29T08:17:48.110Z,4.43
2023-03-29T08:20:18.388Z,4.35
2023-03-29T08:22:45.481Z,3.47
2023-03-29T08:25:12.940Z,8.07
2023-03-29T08:27:39.941Z,5.50
2023-03-29T08:30:10.122Z,3.95
2023-03-29T08:32:37.594Z,7.10
2023-03-29T08:35:07.386Z,4.47
2023-03-29T08:37:34.466Z,3.75
2023-03-29T08:40:02.295Z,4.35
2023-03-29T08:42:54.397Z,3.40
2023-03-29T08:45:29.341Z,10.20
2023-03-29T08:48:08.424Z,3.42
2023-03-29T08:50:39.699Z,4.20
2023-03-29T08:53:12.048Z,4.20
2023-03-29T08:55:42.679Z,3.10
2023-03-29T08:58:15.900Z,4.18
2023-03-29T09:00:48.593Z,3.60
2023-03-29T09:03:22.297Z,6.63
2023-03-29T09:05:53.610Z,7.03
2023-03-29T09:08:22.653Z,2.38
2023-03-29T09:11:07.925Z,3.63
2023-03-29T09:13:43.990Z,2.83
2023-03-29T09:16:22.739Z,6.32
2023-03-29T09:19:02.040Z,6.18
2023-03-29T09:21:37.733Z,5.57
2023-03-29T09:24:28.932Z,3.72
2023-03-29T09:27:00.703Z,3.22
2023-03-29T09:29:52.600Z,6.43
2023-03-29T09:32:23.435Z,3.67
2023-03-29T09:34:58.368Z,5.57
2023-03-29T09:37:32.011Z,6.32
2023-03-29T09:39:59.978Z,3.47
2023-03-29T09:42:30.555Z,3.78
2023-03-29T09:45:03.449Z,6.88
2023-03-29T09:47:36.166Z,4.03
2023-03-29T09:50:23.008Z,3.25
2023-03-29T09:52:58.028Z,2.78
2023-03-29T09:55:28.276Z,6.20
2023-03-29T09:58:00.364Z,3.83
2023-03-29T10:00:27.976Z,3.90
2023-03-29T10:02:58.975Z,4.38
2023-03-29T10:05:30.043Z,5.93
2023-03-29T10:08:02.416Z,3.58
2023-03-29T10:10:32.389Z,3.28
2023-03-29T10:13:03.388Z,7.32
2023-03-29T10:15:30.935Z,6.38
2023-03-29T10:18:01.155Z,3.80
2023-03-29T10:20:28.425Z,4.63
2023-03-29T10:22:57.699Z,5.28
2023-03-29T10:25:27.585Z,5.28
2023-03-29T10:27:58.518Z,4.20
2023-03-29T10:30:26.334Z,5.28
2023-03-29T10:32:58.020Z,2.63
2023-03-29T10:35:30.001Z,4.45
2023-03-29T10:37:59.406Z,3.25
2023-03-29T10:42:59.684Z,9.73
2023-03-29T10:45:29.262Z,9.55
2023-03-29T10:47:58.020Z,4.03
2023-03-29T10:50:34.325Z,3.97
2023-03-29T10:53:03.290Z,4.43
2023-03-29T10:55:37.096Z,3.03
2023-03-29T10:58:17.021Z,4.60
2023-03-29T11:00:50.221Z,4.22
2023-03-29T11:03:38.433Z,4.47
2023-03-29T11:06:16.537Z,8.23
2023-03-29T11:08:52.768Z,2.55
2023-03-29T11:11:41.252Z,4.72
2023-03-29T11:14:24.811Z,3.22
2023-03-29T11:17:05.001Z,4.10
2023-03-29T11:20:02.381Z,2.30
2023-03-29T11:22:46.313Z,2.90
2023-03-29T11:25:24.747Z,7.78
2023-03-29T11:27:59.082Z,1.98
2023-03-29T11:30:35.309Z,10.40
2023-03-29T11:33:12.379Z,3.10
2023-03-29T11:35:48.359Z,3.67
2023-03-29T11:38:28.037Z,3.22
2023-03-29T11:41:01.638Z,3.75
2023-03-29T11:43:35.009Z,2.08
2023-03-29T11:46:11.463Z,3.30
2023-03-29T11:48:43.293Z,4.15
2023-03-29T11:51:16.267Z,4.65
2023-03-29T11:53:53.820Z,3.53
2023-03-29T11:56:27.716Z,4.15
2023-03-29T11:59:01.455Z,5.82
2023-03-29T12:01:33.470Z,3.78
2023-03-29T12:04:06.237Z,2.75
2023-03-29T12:06:39.330Z,10.10
2023-03-29T12:09:14.263Z,3.58
2023-03-29T12:11:54.483Z,3.55
2023-03-29T12:14:32.641Z,4.38
2023-03-29T12:17:06.092Z,4.32
2023-03-29T12:19:42.633Z,5.25
2023-03-29T12:22:11.201Z,2.83
2023-03-29T12:24:43.217Z,45.65
2023-03-29T12:27:26.589Z,5.43
2023-03-29T12:30:21.652Z,8.25
2023-03-29T12:33:07.359Z,3.95
2023-03-29T12:35:45.492Z,4.38
2023-03-29T12:38:19.618Z,2.00
2023-03-29T12:40:54.485Z,4.53
2023-03-29T12:43:26.222Z,3.42
2023-03-29T12:45:57.164Z,3.22
2023-03-29T12:48:27.901Z,2.53
2023-03-29T12:51:03.341Z,4.72
2023-03-29T12:53:34.391Z,3.60
2023-03-29T12:56:13.375Z,3.95
2023-03-29T12:59:05.639Z,5.47
2023-03-29T13:01:34.357Z,2.28
2023-03-29T13:07:07.190Z,4.13
2023-03-29T13:09:42.793Z,3.97
2023-03-29T13:12:24.080Z,3.03
2023-03-29T13:14:55.215Z,4.20
2023-03-29T13:17:31.912Z,3.58
2023-03-29T13:20:13.671Z,3.28
2023-03-29T13:22:50.964Z,3.13
2023-03-29T13:25:44.063Z,2.70
2023-03-29T13:28:20.461Z,3.67
2023-03-29T13:30:57.688Z,3.92
2023-03-29T13:33:43.761Z,12.65
2023-03-29T13:36:19.893Z,4.13
2023-03-29T13:38:49.475Z,2.92
2023-03-29T13:41:43.739Z,2.58
2023-03-29T13:44:26.077Z,3.10
2023-03-29T13:47:03.741Z,3.40
2023-03-29T13:49:33.927Z,7.72
2023-03-29T13:52:13.359Z,6.22
2023-03-29T13:54:45.656Z,5.45
2023-03-29T13:57:20.207Z,2.97
2023-03-29T14:00:01.338Z,3.85
2023-03-29T14:02:35.647Z,2.35
2023-03-29T14:05:05.707Z,3.55
2023-03-29T14:07:37.276Z,6.30
2023-03-29T14:10:05.139Z,3.33
2023-03-29T14:12:37.755Z,7.90
2023-03-29T14:15:18.304Z,9.35
2023-03-29T14:17:46.804Z,3.58
2023-03-29T14:20:15.716Z,7.40
2023-03-29T14:22:44.292Z,3.75
2023-03-29T14:25:17.235Z,3.67
2023-03-29T14:27:44.901Z,4.40
2023-03-29T14:30:25.379Z,3.55
2023-03-29T14:32:53.022Z,8.00
2023-03-29T14:35:27.315Z,3.85
2023-03-29T14:37:55.284Z,5.80
2023-03-29T14:40:26.003Z,3.38
2023-03-29T14:42:54.005Z,4.57
2023-03-29T14:45:25.791Z,4.15
2023-03-29T14:47:53.499Z,6.10
2023-03-29T14:50:27.160Z,3.05
2023-03-29T14:52:57.777Z,7.32
2023-03-29T14:55:26.233Z,5.03
2023-03-29T14:57:55.327Z,10.05
2023-03-29T15:00:28.715Z,3.28
2023-03-29T15:03:00.785Z,6.10
2023-03-29T15:05:37.535Z,3.80
2023-03-29T15:08:07.622Z,4.00
2023-03-29T15:10:37.175Z,9.98
2023-03-29T15:13:06.864Z,4.82
2023-03-29T15:15:38.339Z,6.97
2023-03-29T15:18:08.278Z,4.97
2023-03-29T15:20:44.325Z,2.55
2023-03-29T15:23:24.019Z,7.18
2023-03-29T15:25:56.438Z,4.10
2023-03-29T15:28:28.429Z,5.18
2023-03-29T15:31:07.686Z,3.75
2023-03-29T15:33:37.460Z,5.00
2023-03-29T15:38:43.061Z,3.35
2023-03-29T15:41:15.698Z,3.80
2023-03-29T15:43:43.244Z,7.50
2023-03-29T15:46:18.074Z,3.15
2023-03-29T15:48:45.854Z,3.22
2023-03-29T15:51:13.075Z,4.75
2023-03-29T15:53:40.933Z,6.13
2023-03-29T15:56:12.261Z,9.15
2023-03-29T15:58:39.804Z,6.68
2023-03-29T16:01:13.544Z,3.47
2023-03-29T16:03:47.074Z,6.30
2023-03-29T16:06:16.086Z,5.68
2023-03-29T16:08:46.202Z,4.75
2023-03-29T16:11:13.204Z,3.53
2023-03-29T16:13:40.646Z,10.25
2023-03-29T16:16:10.593Z,4.13
2023-03-29T16:18:37.940Z,4.38
2023-03-29T16:21:12.483Z,4.05
2023-03-29T16:23:40.764Z,5.22
2023-03-29T16:26:08.358Z,6.28
2023-03-29T16:28:37.008Z,5.05
2023-03-29T16:31:05.106Z,4.65
2023-03-29T16:33:32.880Z,4.03
2023-03-29T16:35:59.874Z,3.75
2023-03-29T16:38:29.305Z,10.20
2023-03-29T16:40:57.138Z,3.60
2023-03-29T16:43:24.334Z,7.55
2023-03-29T16:45:51.545Z,4.07
2023-03-29T16:48:21.868Z,3.85
2023-03-29T16:50:49.514Z,3.88
2023-03-29T16:53:18.262Z,9.07
2023-03-29T16:55:47.306Z,5.70
2023-03-29T16:58:16.673Z,4.70
2023-03-29T17:00:46.318Z,4.22
2023-03-29T17:03:15.920Z,4.07
2023-03-29T17:05:48.635Z,5.40
2023-03-29T17:08:16.441Z,6.53
2023-03-29T17:10:43.730Z,35.80
2023-03-29T17:13:13.170Z,10.70
2023-03-29T17:18:07.465Z,13.68
2023-03-29T17:20:34.686Z,13.30
2023-03-29T17:23:02.097Z,11.13
2023-03-29T17:25:29.193Z,10.82
2023-03-29T17:27:57.214Z,11.20
2023-03-29T17:30:25.759Z,16.13
2023-03-29T17:32:53.736Z,16.02
2023-03-29T17:35:20.949Z,15.43
2023-03-29T17:37:48.147Z,15.93
2023-03-29T17:40:15.254Z,12.50
2023-03-29T17:42:43.268Z,10.43
2023-03-29T17:45:11.344Z,10.65
2023-03-29T17:47:40.936Z,18.52
2023-03-29T17:50:12.007Z,27.63
2023-03-29T17:52:40.432Z,18.73
2023-03-29T17:55:11.194Z,19.47
2023-03-29T17:57:39.009Z,22.90
2023-03-29T18:00:09.405Z,21.25
2023-03-29T18:02:37.025Z,23.52
2023-03-29T18:05:09.453Z,16.38
2023-03-29T18:07:37.330Z,22.27
2023-03-29T18:10:04.995Z,19.45
2023-03-29T18:12:32.650Z,24.33
2023-03-29T18:14:59.824Z,31.40
2023-03-29T18:17:29.920Z,26.55
2023-03-29T18:19:57.557Z,31.25
2023-03-29T18:22:27.793Z,33.45
2023-03-29T18:24:55.046Z,32.83
2023-03-29T18:27:22.583Z,32.50
2023-03-29T18:29:49.637Z,34.55
2023-03-29T18:32:17.572Z,42.15
2023-03-29T18:34:47.154Z,45.08
2023-03-29T18:37:17.551Z,45.08
2023-03-29T18:39:47.106Z,40.40
2023-03-29T18:42:14.903Z,34.33
2023-03-29T18:44:42.254Z,38.35
2023-03-29T18:47:09.655Z,31.75
2023-03-29T18:49:36.889Z,28.10
2023-03-29T18:52:05.826Z,30.05
2023-03-29T18:54:32.915Z,28.27
2023-03-29T18:57:04.359Z,26.15
2023-03-29T18:59:35.948Z,31.17
2023-03-29T19:02:03.769Z,42.35
2023-03-29T19:04:31.790Z,48.78
2023-03-29T19:07:03.520Z,33.87
2023-03-29T19:09:31.754Z,38.70
2023-03-29T19:12:03.414Z,35.63
2023-03-29T19:14:32.640Z,38.97
2023-03-29T19:17:02.901Z,40.40
2023-03-29T19:19:30.072Z,35.47
2023-03-29T19:22:00.271Z,31.17
2023-03-29T19:24:27.745Z,35.08
2023-03-29T19:26:56.643Z,37.08
2023-03-29T19:29:25.912Z,39.53
2023-03-29T19:31:56.430Z,41.35
2023-03-29T19:34:24.382Z,34.08
2023-03-29T19:36:53.434Z,52.87
2023-03-29T19:39:26.905Z,37.45
2023-03-29T19:41:56.285Z,45.17
2023-03-29T19:46:54.663Z,38.45
2023-03-29T19:49:21.755Z,35.05
2023-03-29T19:51:50.455Z,45.78
2023-03-29T19:54:17.607Z,28.33
2023-03-29T19:56:45.200Z,26.20
2023-03-29T19:59:14.833Z,30.70
2023-03-29T20:01:51.097Z,31.20
2023-03-29T20:04:20.892Z,31.60
2023-03-29T20:06:51.749Z,33.22
2023-03-29T20:09:18.793Z,28.55
2023-03-29T20:11:50.969Z,21.88
2023-03-29T20:14:18.203Z,26.60
2023-03-29T20:16:46.314Z,46.80
2023-03-29T20:19:17.653Z,38.88
2023-03-29T20:21:46.444Z,42.55
2023-03-29T20:24:13.570Z,48.60
2023-03-29T20:26:41.104Z,41.80
2023-03-29T20:29:08.677Z,33.00
2023-03-29T20:31:36.208Z,32.95
2023-03-29T20:34:03.425Z,31.10
2023-03-29T20:36:31.754Z,24.92
2023-03-29T20:39:01.301Z,23.30
2023-03-29T20:41:28.612Z,25.30
2023-03-29T20:43:58.411Z,23.48
2023-03-29T20:46:33.256Z,24.52
2023-03-29T20:49:01.555Z,22.48
2023-03-29T20:51:30.428Z,24.08
2023-03-29T20:54:02.574Z,17.33
2023-03-29T20:56:35.256Z,23.13
2023-03-29T20:59:04.037Z,26.45
2023-03-29T21:03:59.100Z,22.27
2023-03-29T21:06:26.338Z,23.60
2023-03-29T21:08:53.539Z,21.95
2023-03-29T21:11:23.924Z,20.60
2023-03-29T21:13:52.848Z,40.80
2023-03-29T21:18:47.966Z,23.52
2023-03-29T21:21:17.359Z,26.30
2023-03-29T21:26:11.602Z,26.65
2023-03-29T21:28:38.600Z,19.10
2023-03-29T21:31:08.238Z,24.50
2023-03-29T21:33:35.629Z,20.40
2023-03-29T21:36:03.006Z,19.15
2023-03-29T21:38:30.090Z,15.20
2023-03-29T21:40:58.189Z,22.23
2023-03-29T21:43:25.460Z,19.98
2023-03-29T21:45:52.816Z,12.23
2023-03-29T21:48:21.172Z,14.68
2023-03-29T21:50:49.372Z,19.25
2023-03-29T21:53:16.809Z,19.73
2023-03-29T21:55:44.149Z,28.33
2023-03-29T21:58:11.094Z,19.88
2023-03-29T22:00:38.390Z,20.08
2023-03-29T22:03:06.075Z,20.40
2023-03-29T22:05:35.115Z,21.50
2023-03-29T22:08:02.061Z,19.50
2023-03-29T22:10:29.586Z,19.83
2023-03-29T22:12:57.173Z,22.88
2023-03-29T22:15:24.522Z,19.00
2023-03-29T22:17:53.446Z,17.73
2023-03-29T22:22:50.354Z,17.10
2023-03-29T22:25:19.348Z,14.00
2023-03-29T22:27:47.890Z,20.80
2023-03-29T22:30:16.244Z,13.05
2023-03-29T22:32:43.379Z,16.25
2023-03-29T22:35:10.989Z,16.20
2023-03-29T22:37:41.205Z,12.98
2023-03-29T22:40:12.088Z,13.77
2023-03-29T22:42:39.010Z,12.30
2023-03-29T22:45:07.534Z,13.73
2023-03-29T22:47:35.377Z,15.70
2023-03-29T22:50:02.783Z,17.83
2023-03-29T22:52:29.814Z,20.40
2023-03-29T22:54:57.366Z,17.35
2023-03-29T22:57:25.889Z,25.63
2023-03-29T22:59:53.243Z,22.80
2023-03-29T23:02:20.603Z,17.83
2023-03-29T23:04:48.123Z,17.88
2023-03-29T23:07:15.236Z,16.10
2023-03-29T23:09:42.379Z,16.38
2023-03-29T23:12:09.767Z,14.43
2023-03-29T23:14:42.737Z,18.15
2023-03-29T23:17:10.405Z,16.33
2023-03-29T23:19:38.164Z,21.63
2023-03-29T23:22:05.356Z,17.05
2023-03-29T23:24:33.430Z,16.20
2023-03-29T23:27:01.181Z,16.80
2023-03-29T23:29:28.825Z,17.80
2023-03-29T23:31:57.408Z,17.25
2023-03-29T23:34:25.221Z,16.23
2023-03-29T23:36:52.218Z,20.15
2023-03-29T23:39:19.529Z,18.90
2023-03-29T23:41:46.562Z,17.58
2023-03-29T23:44:13.866Z,15.27
2023-03-29T23:46:41.938Z,14.27
2023-03-29T23:49:10.897Z,12.52
2023-03-29T23:51:39.201Z,15.13
2023-03-29T23:54:25.321Z,18.02
2023-03-29T23:56:52.286Z,17.70
2023-03-29T23:59:19.593Z,16.55
